createdAt,value
2019-03-09T00:01:20.511Z,6.33
2019-03-09T00:03:48.986Z,6.32
2019-03-09T00:06:17.862Z,6.36
2019-03-09T00:08:46.315Z,6.37
2019-03-09T00:11:14.793Z,6.40
2019-03-09T00:13:43.250Z,6.39
2019-03-09T00:16:11.728Z,6.40
2019-03-09T00:18:40.210Z,6.41
2019-03-09T00:21:08.687Z,6.41
2019-03-09T00:23:44.421Z,6.42
2019-03-09T00:26:17.311Z,6.46
2019-03-09T00:29:05.433Z,6.43
2019-03-09T00:31:44.492Z,6.43
2019-03-09T00:34:12.975Z,6.47
2019-03-09T00:36:41.425Z,6.47
2019-03-09T00:39:10.559Z,6.47
2019-03-09T00:41:39.029Z,6.49
2019-03-09T00:44:07.499Z,6.43
2019-03-09T00:46:36.003Z,6.47
2019-03-09T00:49:04.473Z,6.43
2019-03-09T00:51:32.955Z,6.41
2019-03-09T00:54:01.438Z,6.47
2019-03-09T00:56:29.922Z,6.45
2019-03-09T00:58:58.406Z,6.46
2019-03-09T01:01:26.885Z,6.47
2019-03-09T01:03:55.437Z,6.46
2019-03-09T01:06:24.069Z,6.51
2019-03-09T01:08:52.536Z,6.51
2019-03-09T01:11:21.026Z,6.52
2019-03-09T01:13:49.523Z,6.54
2019-03-09T01:16:18.073Z,6.53
2019-03-09T01:18:46.565Z,6.57
2019-03-09T01:21:15.038Z,6.55
2019-03-09T01:23:43.547Z,6.55
2019-03-09T01:26:12.042Z,6.61
2019-03-09T01:28:40.543Z,6.61
2019-03-09T01:31:09.142Z,6.60
2019-03-09T01:33:37.622Z,6.61
2019-03-09T01:36:06.114Z,6.63
2019-03-09T01:38:34.617Z,6.62
2019-03-09T01:41:03.090Z,6.63
2019-03-09T01:43:31.592Z,6.62
2019-03-09T01:46:00.063Z,6.61
2019-03-09T01:48:28.552Z,6.61
2019-03-09T01:50:57.019Z,6.59
2019-03-09T01:53:25.522Z,6.63
2019-03-09T01:55:53.981Z,6.58
2019-03-09T01:58:22.478Z,6.61
2019-03-09T02:00:50.953Z,6.60
2019-03-09T02:03:19.454Z,6.60
2019-03-09T02:05:48.119Z,6.60
2019-03-09T02:08:16.607Z,6.61
2019-03-09T02:10:45.072Z,6.64
2019-03-09T02:13:13.571Z,6.62
2019-03-09T02:15:42.035Z,6.61
2019-03-09T02:18:10.545Z,6.61
2019-03-09T02:20:39.024Z,6.64
2019-03-09T02:23:07.561Z,6.67
2019-03-09T02:25:36.057Z,6.65
2019-03-09T02:28:04.528Z,6.71
2019-03-09T02:30:33.002Z,6.68
2019-03-09T02:33:01.613Z,6.71
2019-03-09T02:35:30.088Z,6.72
2019-03-09T02:38:00.246Z,6.75
2019-03-09T02:40:30.054Z,6.76
2019-03-09T02:42:58.532Z,6.75
2019-03-09T02:45:28.757Z,6.75
2019-03-09T02:47:57.247Z,6.78
2019-03-09T02:50:25.717Z,6.81
2019-03-09T02:52:54.204Z,6.80
2019-03-09T02:55:26.369Z,6.79
2019-03-09T02:57:54.851Z,6.80
2019-03-09T03:00:23.386Z,6.85
2019-03-09T03:02:59.243Z,6.88
2019-03-09T03:05:27.756Z,6.88
2019-03-09T03:07:56.236Z,6.92
2019-03-09T03:10:24.726Z,6.86
2019-03-09T03:12:53.199Z,6.93
2019-03-09T03:15:29.884Z,6.94
2019-03-09T03:17:58.366Z,6.94
2019-03-09T03:20:26.866Z,6.92
2019-03-09T03:22:55.322Z,6.95
2019-03-09T03:25:23.899Z,6.96
2019-03-09T03:27:52.358Z,7.01
2019-03-09T03:30:20.869Z,6.98
2019-03-09T03:32:49.491Z,7.00
2019-03-09T03:35:17.977Z,7.02
2019-03-09T03:37:46.457Z,6.99
2019-03-09T03:40:15.003Z,7.00
2019-03-09T03:42:43.480Z,6.99
2019-03-09T03:45:14.033Z,6.98
2019-03-09T03:47:42.498Z,7.02
2019-03-09T03:50:11.221Z,7.03
2019-03-09T03:52:39.700Z,7.03
2019-03-09T03:55:12.075Z,7.05
2019-03-09T03:57:40.515Z,7.06
2019-03-09T04:00:14.530Z,7.05
2019-03-09T04:02:43.189Z,7.07
2019-03-09T04:05:12.031Z,7.09
2019-03-09T04:07:41.439Z,7.12
2019-03-09T04:10:11.948Z,7.10
2019-03-09T04:12:42.151Z,7.11
2019-03-09T04:15:11.489Z,7.06
2019-03-09T04:17:39.966Z,7.07
2019-03-09T04:20:11.621Z,7.11
2019-03-09T04:22:40.082Z,7.14
2019-03-09T04:25:09.344Z,7.14
2019-03-09T04:27:37.850Z,7.13
2019-03-09T04:30:09.198Z,7.12
2019-03-09T04:32:37.710Z,7.16
2019-03-09T04:35:06.932Z,7.15
2019-03-09T04:37:35.410Z,7.21
2019-03-09T04:40:06.327Z,7.21
2019-03-09T04:42:34.806Z,7.20
2019-03-09T04:45:03.957Z,7.22
2019-03-09T04:47:32.432Z,7.17
2019-03-09T04:50:00.931Z,7.22
2019-03-09T04:52:29.408Z,7.22
2019-03-09T04:54:57.901Z,7.22
2019-03-09T04:57:26.367Z,7.25
2019-03-09T04:59:54.859Z,7.27
2019-03-09T05:02:23.403Z,7.23
2019-03-09T05:04:51.942Z,7.28
2019-03-09T05:07:24.052Z,7.24
2019-03-09T05:10:23.224Z,7.26
2019-03-09T05:12:54.728Z,7.30
2019-03-09T05:15:23.230Z,7.24
2019-03-09T05:17:51.698Z,7.22
2019-03-09T05:20:20.193Z,7.24
2019-03-09T05:22:48.665Z,7.27
2019-03-09T05:25:17.165Z,7.22
2019-03-09T05:27:45.636Z,7.25
2019-03-09T05:30:36.301Z,7.29
2019-03-09T05:33:05.165Z,7.25
2019-03-09T05:35:33.658Z,7.27
2019-03-09T05:38:02.116Z,7.28
2019-03-09T05:40:30.616Z,7.33
2019-03-09T05:42:59.092Z,7.27
2019-03-09T05:45:27.607Z,7.26
2019-03-09T05:47:56.158Z,7.30
2019-03-09T05:50:24.649Z,7.30
2019-03-09T05:52:59.083Z,7.27
2019-03-09T05:55:27.638Z,7.24
2019-03-09T05:57:56.122Z,7.23
2019-03-09T06:00:24.630Z,7.21
2019-03-09T06:02:53.120Z,7.14
2019-03-09T06:05:30.546Z,7.21
2019-03-09T06:07:59.017Z,7.21
2019-03-09T06:10:27.526Z,7.13
2019-03-09T06:12:56.004Z,7.11
2019-03-09T06:15:25.970Z,7.10
2019-03-09T06:17:54.427Z,7.06
2019-03-09T06:20:22.935Z,7.05
2019-03-09T06:22:51.414Z,7.05
2019-03-09T06:25:20.024Z,7.04
2019-03-09T06:27:48.640Z,6.99
2019-03-09T06:30:17.596Z,7.02
2019-03-09T06:33:05.566Z,7.00
2019-03-09T06:35:34.066Z,6.99
2019-03-09T06:38:31.430Z,6.99
2019-03-09T06:41:03.137Z,6.91
2019-03-09T06:43:30.125Z,6.90
2019-03-09T06:45:58.602Z,6.93
2019-03-09T06:48:27.075Z,6.88
2019-03-09T06:50:55.566Z,6.94
2019-03-09T06:53:24.050Z,6.89
2019-03-09T06:55:52.529Z,6.85
2019-03-09T06:58:20.997Z,6.86
2019-03-09T07:00:49.505Z,6.90
2019-03-09T07:03:17.994Z,6.88
2019-03-09T07:05:46.504Z,6.80
2019-03-09T07:08:14.991Z,6.82
2019-03-09T07:10:43.465Z,6.84
2019-03-09T07:13:11.964Z,6.87
2019-03-09T07:15:41.889Z,6.86
2019-03-09T07:18:15.635Z,6.92
2019-03-09T07:20:44.250Z,6.91
2019-03-09T07:23:12.743Z,6.95
2019-03-09T07:25:41.189Z,6.99
2019-03-09T07:28:14.439Z,7.02
2019-03-09T07:30:42.934Z,6.96
2019-03-09T07:33:11.444Z,7.02
2019-03-09T07:35:39.907Z,7.06
2019-03-09T07:38:08.402Z,7.03
2019-03-09T07:40:36.870Z,7.05
2019-03-09T07:43:05.433Z,7.11
2019-03-09T07:45:33.950Z,7.09
2019-03-09T07:48:02.523Z,7.15
2019-03-09T07:50:31.064Z,7.17
2019-03-09T07:52:59.580Z,7.25
2019-03-09T07:55:28.063Z,7.24
2019-03-09T07:58:00.787Z,7.23
2019-03-09T08:00:29.240Z,7.31
2019-03-09T08:02:57.893Z,7.40
2019-03-09T08:05:26.541Z,7.42
2019-03-09T08:07:55.030Z,7.49
2019-03-09T08:10:30.521Z,7.53
2019-03-09T08:12:59.019Z,7.51
2019-03-09T08:15:27.482Z,7.57
2019-03-09T08:17:56.054Z,7.63
2019-03-09T08:20:24.557Z,7.66
2019-03-09T08:22:53.043Z,7.70
2019-03-09T08:25:25.464Z,7.76
2019-03-09T08:27:53.940Z,7.86
2019-03-09T08:30:24.154Z,7.93
2019-03-09T08:32:52.698Z,7.89
2019-03-09T08:35:21.506Z,7.91
2019-03-09T08:37:50.938Z,7.90
2019-03-09T08:40:23.105Z,7.94
2019-03-09T08:42:51.779Z,7.94
2019-03-09T08:45:21.183Z,7.85
2019-03-09T08:47:52.491Z,7.86
2019-03-09T08:50:21.825Z,7.95
2019-03-09T08:52:50.310Z,7.96
2019-03-09T08:55:18.982Z,7.86
2019-03-09T08:57:47.548Z,7.84
2019-03-09T09:00:24.557Z,7.84
2019-03-09T09:02:53.906Z,8.41
2019-03-09T09:05:22.422Z,9.03
2019-03-09T09:07:50.976Z,9.56
2019-03-09T09:10:19.459Z,10.07
2019-03-09T09:12:47.940Z,10.35
2019-03-09T09:15:17.549Z,10.81
2019-03-09T09:17:46.129Z,11.05
2019-03-09T09:20:20.397Z,11.47
2019-03-09T09:22:48.879Z,11.86
2019-03-09T09:25:17.412Z,12.21
2019-03-09T09:27:45.961Z,12.55
2019-03-09T09:30:22.270Z,12.95
2019-03-09T09:32:50.897Z,12.90
2019-03-09T09:35:19.863Z,12.99
2019-03-09T09:37:48.613Z,12.91
2019-03-09T09:40:19.756Z,12.97
2019-03-09T09:42:48.332Z,13.20
2019-03-09T09:45:17.240Z,13.29
2019-03-09T09:47:45.719Z,13.30
2019-03-09T09:50:16.396Z,13.23
2019-03-09T09:52:45.020Z,13.80
2019-03-09T09:55:15.606Z,13.74
2019-03-09T09:57:44.089Z,13.81
2019-03-09T10:00:24.405Z,15.20
2019-03-09T10:02:52.883Z,14.77
2019-03-09T10:05:22.024Z,15.27
2019-03-09T10:07:50.747Z,14.75
2019-03-09T10:10:21.609Z,15.44
2019-03-09T10:12:50.087Z,15.57
2019-03-09T10:15:26.944Z,15.57
2019-03-09T10:17:55.428Z,15.71
2019-03-09T10:20:24.495Z,15.97
2019-03-09T10:23:03.681Z,15.30
2019-03-09T10:25:24.070Z,15.19
2019-03-09T10:27:52.549Z,15.16
2019-03-09T10:30:22.680Z,14.68
2019-03-09T10:32:51.601Z,14.44
2019-03-09T10:35:20.224Z,14.16
2019-03-09T10:37:49.655Z,14.07
2019-03-09T10:40:18.520Z,13.75
2019-03-09T10:42:46.980Z,13.30
2019-03-09T10:45:17.674Z,13.56
2019-03-09T10:47:46.216Z,13.09
2019-03-09T10:50:16.054Z,12.92
2019-03-09T10:52:44.771Z,12.84
2019-03-09T10:55:30.638Z,12.57
2019-03-09T10:57:59.143Z,12.73
2019-03-09T11:00:35.735Z,12.62
2019-03-09T11:03:04.600Z,12.71
2019-03-09T11:05:33.171Z,12.28
2019-03-09T11:08:01.786Z,12.17
2019-03-09T11:10:30.433Z,12.24
2019-03-09T11:12:58.925Z,12.47
2019-03-09T11:15:27.957Z,12.22
2019-03-09T11:17:56.600Z,12.12
2019-03-09T11:20:25.171Z,11.91
2019-03-09T11:22:53.643Z,11.89
2019-03-09T11:25:22.340Z,11.66
2019-03-09T11:27:50.876Z,11.58
2019-03-09T11:30:26.687Z,11.70
2019-03-09T11:32:55.163Z,11.71
2019-03-09T11:35:23.665Z,11.75
2019-03-09T11:37:52.134Z,11.75
2019-03-09T11:40:20.638Z,11.65
2019-03-09T11:42:49.276Z,11.93
2019-03-09T11:45:19.087Z,12.19
2019-03-09T11:47:47.570Z,12.03
2019-03-09T11:50:17.027Z,12.28
2019-03-09T11:52:45.931Z,12.18
2019-03-09T11:55:17.742Z,12.29
2019-03-09T11:57:46.279Z,12.23
2019-03-09T12:00:35.581Z,12.08
2019-03-09T12:03:04.078Z,12.13
2019-03-09T12:05:32.597Z,12.06
2019-03-09T12:08:01.074Z,12.23
2019-03-09T12:10:29.570Z,12.52
2019-03-09T12:12:58.063Z,12.58
2019-03-09T12:15:26.619Z,12.70
2019-03-09T12:17:55.106Z,12.57
2019-03-09T12:20:25.238Z,12.72
2019-03-09T12:23:01.009Z,12.78
2019-03-09T12:25:23.938Z,12.85
2019-03-09T12:27:52.406Z,12.94
2019-03-09T12:30:22.681Z,12.96
2019-03-09T12:32:51.164Z,13.09
2019-03-09T12:35:19.858Z,13.04
2019-03-09T12:37:48.398Z,13.15
2019-03-09T12:40:20.903Z,12.87
2019-03-09T12:42:49.540Z,12.73
2019-03-09T12:45:18.265Z,12.76
2019-03-09T12:47:46.910Z,12.87
2019-03-09T12:50:18.168Z,12.88
2019-03-09T12:52:46.726Z,12.83
2019-03-09T12:55:15.283Z,12.77
2019-03-09T12:57:43.833Z,12.48
2019-03-09T13:00:23.650Z,12.50
2019-03-09T13:02:52.138Z,12.52
2019-03-09T13:05:20.702Z,12.34
2019-03-09T13:07:49.204Z,12.33
2019-03-09T13:10:17.851Z,12.34
2019-03-09T13:12:47.069Z,12.38
2019-03-09T13:15:17.097Z,12.41
2019-03-09T13:17:46.204Z,12.43
2019-03-09T13:20:16.832Z,12.33
2019-03-09T13:22:45.576Z,12.27
2019-03-09T13:25:14.624Z,12.33
2019-03-09T13:27:43.373Z,12.35
2019-03-09T13:30:22.518Z,12.39
2019-03-09T13:32:51.047Z,12.41
2019-03-09T13:35:20.510Z,12.45
2019-03-09T13:37:49.024Z,12.41
2019-03-09T13:40:17.608Z,12.42
2019-03-09T13:42:46.096Z,12.53
2019-03-09T13:45:17.626Z,12.43
2019-03-09T13:47:46.194Z,12.40
2019-03-09T13:50:15.252Z,12.32
2019-03-09T13:52:43.807Z,12.25
2019-03-09T13:55:13.218Z,12.20
2019-03-09T13:57:42.339Z,12.23
2019-03-09T14:00:18.445Z,12.31
2019-03-09T14:02:46.949Z,12.48
2019-03-09T14:05:15.636Z,12.50
2019-03-09T14:07:44.139Z,12.54
2019-03-09T14:10:17.291Z,12.52
2019-03-09T14:12:45.972Z,12.55
2019-03-09T14:15:18.035Z,12.52
2019-03-09T14:17:46.553Z,12.49
2019-03-09T14:20:16.259Z,12.36
2019-03-09T14:22:44.817Z,12.42
2019-03-09T14:25:15.584Z,12.31
2019-03-09T14:27:44.089Z,12.27
2019-03-09T14:30:14.818Z,12.23
2019-03-09T14:32:43.326Z,11.98
2019-03-09T14:35:11.802Z,12.16
2019-03-09T14:37:40.366Z,12.07
2019-03-09T14:40:11.691Z,11.99
2019-03-09T14:42:40.176Z,12.08
2019-03-09T14:45:11.712Z,12.08
2019-03-09T14:47:40.203Z,12.17
2019-03-09T14:50:09.808Z,12.14
2019-03-09T14:52:38.353Z,12.23
2019-03-09T14:55:09.074Z,12.18
2019-03-09T14:57:37.627Z,12.16
2019-03-09T15:00:26.606Z,12.14
2019-03-09T15:02:55.117Z,12.13
2019-03-09T15:05:23.853Z,12.14
2019-03-09T15:07:52.356Z,12.01
2019-03-09T15:10:20.823Z,11.83
2019-03-09T15:12:49.379Z,11.53
2019-03-09T15:15:19.289Z,11.20
2019-03-09T15:17:47.798Z,11.28
2019-03-09T15:20:17.222Z,11.35
2019-03-09T15:22:45.982Z,11.31
2019-03-09T15:25:16.411Z,11.06
2019-03-09T15:27:44.910Z,11.11
2019-03-09T15:30:18.196Z,11.04
2019-03-09T15:32:46.765Z,11.11
2019-03-09T15:35:39.222Z,11.05
2019-03-09T15:38:07.787Z,11.00
2019-03-09T15:40:36.281Z,10.95
2019-03-09T15:43:04.763Z,10.99
2019-03-09T15:45:33.219Z,10.95
2019-03-09T15:48:01.732Z,10.97
2019-03-09T15:50:30.210Z,10.98
2019-03-09T15:52:58.700Z,10.90
2019-03-09T15:55:27.163Z,10.90
2019-03-09T15:57:55.643Z,10.82
2019-03-09T16:00:26.997Z,10.75
2019-03-09T16:02:55.542Z,10.57
2019-03-09T16:05:23.965Z,10.50
2019-03-09T16:07:52.453Z,10.41
2019-03-09T16:10:22.055Z,10.32
2019-03-09T16:12:50.625Z,10.23
2019-03-09T16:15:19.322Z,10.18
2019-03-09T16:17:47.878Z,10.19
2019-03-09T16:20:24.023Z,10.01
2019-03-09T16:22:52.478Z,9.73
2019-03-09T16:25:20.980Z,9.34
2019-03-09T16:27:49.440Z,9.03
2019-03-09T16:30:22.693Z,9.13
2019-03-09T16:32:51.163Z,9.03
2019-03-09T16:35:19.732Z,9.10
2019-03-09T16:37:49.456Z,8.88
2019-03-09T16:40:19.890Z,8.92
2019-03-09T16:42:48.360Z,9.00
2019-03-09T16:45:17.513Z,8.86
2019-03-09T16:47:45.996Z,8.80
2019-03-09T16:50:20.675Z,8.87
2019-03-09T16:52:49.167Z,8.74
2019-03-09T16:55:17.648Z,8.78
2019-03-09T16:57:46.334Z,8.69
2019-03-09T17:00:19.217Z,8.36
2019-03-09T17:02:47.779Z,8.47
2019-03-09T17:05:16.280Z,8.01
2019-03-09T17:07:44.760Z,8.08
2019-03-09T17:10:14.799Z,8.14
2019-03-09T17:12:43.259Z,8.02
2019-03-09T17:15:19.883Z,7.97
2019-03-09T17:17:48.420Z,7.85
2019-03-09T17:20:17.967Z,7.68
2019-03-09T17:22:46.435Z,7.75
2019-03-09T17:25:15.446Z,7.64
2019-03-09T17:27:44.081Z,7.70
2019-03-09T17:30:19.563Z,7.80
2019-03-09T17:32:48.027Z,7.78
2019-03-09T17:35:18.144Z,7.80
2019-03-09T17:37:46.743Z,7.81
2019-03-09T17:40:16.263Z,7.75
2019-03-09T17:42:44.879Z,7.84
2019-03-09T17:45:19.031Z,7.71
2019-03-09T17:47:47.506Z,7.54
2019-03-09T17:50:16.014Z,7.51
2019-03-09T17:52:44.474Z,7.53
2019-03-09T17:55:13.420Z,7.57
2019-03-09T17:57:41.919Z,7.49
2019-03-09T18:00:25.085Z,7.37
2019-03-09T18:02:53.563Z,7.48
2019-03-09T18:05:22.155Z,7.47
2019-03-09T18:07:50.689Z,7.50
2019-03-09T18:10:31.612Z,7.43
2019-03-09T18:13:00.095Z,7.47
2019-03-09T18:15:28.663Z,7.36
2019-03-09T18:17:57.150Z,7.50
2019-03-09T18:20:25.639Z,7.38
2019-03-09T18:22:54.106Z,7.41
2019-03-09T18:25:22.701Z,7.28
2019-03-09T18:27:51.174Z,7.40
2019-03-09T18:30:19.749Z,7.39
2019-03-09T18:32:48.272Z,7.35
2019-03-09T18:35:16.768Z,7.40
2019-03-09T18:37:45.256Z,7.28
2019-03-09T18:40:15.788Z,7.34
2019-03-09T18:42:44.309Z,7.37
2019-03-09T18:45:18.286Z,7.35
2019-03-09T18:47:46.806Z,7.40
2019-03-09T18:50:15.533Z,7.29
2019-03-09T18:52:44.062Z,7.34
2019-03-09T18:55:12.881Z,7.37
2019-03-09T18:57:41.436Z,7.31
2019-03-09T19:00:16.011Z,7.31
2019-03-09T19:02:44.506Z,7.38
2019-03-09T19:05:13.081Z,7.37
2019-03-09T19:07:41.542Z,7.37
2019-03-09T19:10:12.891Z,7.38
2019-03-09T19:12:41.352Z,7.43
2019-03-09T19:15:12.390Z,7.40
2019-03-09T19:17:40.938Z,7.40
2019-03-09T19:20:12.444Z,7.40
2019-03-09T19:22:40.948Z,7.39
2019-03-09T19:25:11.541Z,7.43
2019-03-09T19:27:40.040Z,7.41
2019-03-09T19:30:19.217Z,7.43
2019-03-09T19:32:47.674Z,7.45
2019-03-09T19:35:16.224Z,7.46
2019-03-09T19:37:44.865Z,7.50
2019-03-09T19:40:17.456Z,7.52
2019-03-09T19:42:45.923Z,7.55
2019-03-09T19:45:18.704Z,7.55
2019-03-09T19:47:47.245Z,7.55
2019-03-09T19:50:23.951Z,7.52
2019-03-09T19:52:52.484Z,7.56
2019-03-09T19:55:21.126Z,7.58
2019-03-09T19:57:49.623Z,7.62
2019-03-09T20:00:22.306Z,7.58
2019-03-09T20:02:50.778Z,7.65
2019-03-09T20:05:19.447Z,7.62
2019-03-09T20:07:47.924Z,7.58
2019-03-09T20:10:20.634Z,7.66
2019-03-09T20:12:49.113Z,7.66
2019-03-09T20:15:18.879Z,7.70
2019-03-09T20:17:47.422Z,7.66
2019-03-09T20:20:19.115Z,7.64
2019-03-09T20:22:47.654Z,7.64
2019-03-09T20:25:16.214Z,7.59
2019-03-09T20:27:44.691Z,7.57
2019-03-09T20:30:18.106Z,7.56
2019-03-09T20:32:46.586Z,7.48
2019-03-09T20:35:15.423Z,7.43
2019-03-09T20:37:43.908Z,7.39
2019-03-09T20:40:14.851Z,7.35
2019-03-09T20:42:43.325Z,7.37
2019-03-09T20:45:16.860Z,7.36
2019-03-09T20:47:45.304Z,7.31
2019-03-09T20:50:18.908Z,7.24
2019-03-09T20:52:47.442Z,7.22
2019-03-09T20:55:15.941Z,7.21
2019-03-09T20:57:44.425Z,7.10
2019-03-09T21:00:21.541Z,7.02
2019-03-09T21:02:50.002Z,7.03
2019-03-09T21:05:18.675Z,6.91
2019-03-09T21:07:47.144Z,6.81
2019-03-09T21:10:19.528Z,6.82
2019-03-09T21:13:11.707Z,6.89
2019-03-09T21:15:40.221Z,6.75
2019-03-09T21:18:08.716Z,6.80
2019-03-09T21:20:37.205Z,6.74
2019-03-09T21:23:05.710Z,6.66
2019-03-09T21:25:34.200Z,6.62
2019-03-09T21:28:02.694Z,6.61
2019-03-09T21:30:31.202Z,6.63
2019-03-09T21:32:59.659Z,6.50
2019-03-09T21:35:28.240Z,6.48
2019-03-09T21:37:56.710Z,6.41
2019-03-09T21:40:25.270Z,6.35
2019-03-09T21:42:53.737Z,6.33
2019-03-09T21:45:22.235Z,6.30
2019-03-09T21:47:50.709Z,6.26
2019-03-09T21:50:19.367Z,6.27
2019-03-09T21:52:47.879Z,6.13
2019-03-09T21:55:17.378Z,6.13
2019-03-09T21:57:46.119Z,6.03
2019-03-09T22:00:19.693Z,6.07
2019-03-09T22:02:50.202Z,6.14
2019-03-09T22:05:18.405Z,6.13
2019-03-09T22:07:46.924Z,6.14
2019-03-09T22:10:15.483Z,6.06
2019-03-09T22:12:44.027Z,6.04
2019-03-09T22:15:16.780Z,6.05
2019-03-09T22:17:45.263Z,6.10
2019-03-09T22:20:14.578Z,6.09
2019-03-09T22:22:43.451Z,6.11
2019-03-09T22:25:13.061Z,6.10
2019-03-09T22:27:41.573Z,6.04
2019-03-09T22:30:17.892Z,6.02
2019-03-09T22:32:46.397Z,6.07
2019-03-09T22:35:15.308Z,6.13
2019-03-09T22:37:43.886Z,6.11
2019-03-09T22:40:14.209Z,6.04
2019-03-09T22:42:42.700Z,6.03
2019-03-09T22:45:12.616Z,6.06
2019-03-09T22:47:41.093Z,5.96
2019-03-09T22:50:17.736Z,6.03
2019-03-09T22:52:46.328Z,5.96
2019-03-09T22:55:14.770Z,5.93
2019-03-09T22:57:43.252Z,5.77
2019-03-09T23:00:31.446Z,5.81
2019-03-09T23:03:00.010Z,5.76
2019-03-09T23:05:28.466Z,5.65
2019-03-09T23:07:56.978Z,5.74
2019-03-09T23:10:26.979Z,5.65
2019-03-09T23:12:55.507Z,5.61
2019-03-09T23:15:23.964Z,5.50
2019-03-09T23:17:52.459Z,5.57
2019-03-09T23:20:21.030Z,5.45
2019-03-09T23:22:49.527Z,5.47
2019-03-09T23:25:18.164Z,5.42
2019-03-09T23:27:46.673Z,5.41
2019-03-09T23:30:17.061Z,5.37
2019-03-09T23:32:45.742Z,5.42
2019-03-09T23:35:15.045Z,5.42
2019-03-09T23:37:43.977Z,5.40
2019-03-09T23:40:14.889Z,5.42
2019-03-09T23:42:43.368Z,5.37
2019-03-09T23:45:14.301Z,5.40
2019-03-09T23:47:42.860Z,5.38
2019-03-09T23:50:13.677Z,5.39
2019-03-09T23:52:42.942Z,5.38
2019-03-09T23:55:21.135Z,5.40
2019-03-09T23:57:42.996Z,5.41
